Impacts TAF Board
For situational awareness. Not to be used for flight planning purposes.
IDs:

KTLH - Tallahassee Intl, FL, US

Issued at 1724 UTC 30 Jun 2022
Updated at 2252 UTC 30 Jun 2022
Potential Impact None Slight Moderate High
Time2233Z 30/23Z 01/00Z 01/01Z 01/02Z 01/03Z 01/04Z 01/05Z 01/06Z 01/07Z 01/08Z 01/09Z 01/10Z 01/11Z>>
Type OBS PRVL PRVL PRVL PRVL PRVL PRVL PRVL PRVL PRVL PRVL PRVL PRVL PRVL
VIS 10 >6 4 4 4 >6 >6 >6 >6 >6 >6 >6 >6 >6
CIG 100 35 25 25 25 30 30 30 100 100 100 100 100 100
Cover OVC BKN OVC OVC OVC BKN BKN BKN BKN BKN BKN BKN BKN BKN
FltCat VFR VFR MVFR MVFR MVFR MVFR MVFR MVFR VFR VFR VFR VFR VFR VFR
WX -- -- TSRA TSRA TSRA VCTS VCTS VCTS -- -- -- -- -- --
WDir 250 VRB 200 200 200 VRB VRB VRB VRB VRB VRB VRB VRB VRB
WSpd 4 4 2 2 2 3 3 3 3 3 3 3 3 3
WGst -- -- -- -- -- -- -- -- -- -- -- -- -- --
WSHgt -- -- -- -- -- -- -- -- -- -- -- -- -- --
WSDir -- -- -- -- -- -- -- -- -- -- -- -- -- --
WSSpd -- -- -- -- -- -- -- -- -- -- -- -- -- --
Raw TAF
KTLH 301724Z 3018/0118 VRB04KT P6SM BKN035
  FM010000 20002KT 4SM TSRA OVC025CB
  FM010300 VRB03KT P6SM VCTS BKN030CB
  FM010600 VRB03KT P6SM BKN100


Raw METAR
KTLH 302233Z 25004KT 10SM FEW040CB SCT060 BKN100 OVC200 27/22 A3008 RMK AO2 TSE32 CB NE-E AND DSNT SW MOV N T02720222
KTLH 302211Z 26003KT 10SM TS FEW040CB SCT060 BKN100 OVC200 26/22 A3008 RMK AO2 CB NE-E AND DSNT SW MOV N T02610222
KTLH 302153Z COR 29005KT 10SM TS SCT040CB BKN060 BKN120 28/22 A3009 RMK AO2 TSB15 SLP187 OCNL LTGIC SE TS SE MOV STNRY CB N-E AND SW MOV STNRY T02780222
KTLH 302119Z COR 29010KT 10SM TS SCT045CB BKN085 BKN120 OVC250 29/23 A3009 RMK AO2 TSB15 OCNL LTGIC SE TS SE MOV STNRY T02890228
KTLH 302053Z COR 24008KT 10SM BKN040CB BKN250 29/23 A3009 RMK AO2 LTG DSNT SE SLP187 VCSH NE CB OHD AND DSNT SW MOV STNRY TCU E T02940228 56012
KTLH 301953Z 11003KT 10SM BKN040CB BKN250 32/22 A3009 RMK AO2 LTG DSNT SW AND W SLP188 VCSH W CB OHD AND SW MOV STNRY TCU DSNT S T03170217

METAR Board
Radar Display
Forecast Discussion
For situational awareness. Not to be used for flight planning purposes.